Time;durP1;ratioP1;P1;durP2;ratioP2;P2;SDS_P1;SDS_P2;PMS_P1;PMS_P2;Temp;Humidity;BMP_temperature;BMP_pressure;BME280_temperature;BME280_humidity;BME280_pressure;Samples;Min_cycle;Max_cycle;Signal;HPM_P1;HPM_P2
2022/09/18 00:00:27;;;;;;;;;;;;;;;5.14;100.00;99821.16;4982394;28;19929;-88
2022/09/18 00:02:53;;;;;;;;;;;;;;;5.27;100.00;99822.63;4984039;28;20451;-90
2022/09/18 00:05:18;;;;;;;;;;;;;;;5.29;100.00;99825.22;4983666;28;20376;-94
2022/09/18 00:07:43;;;;;;;;;;;;;;;5.27;100.00;99827.88;4983411;28;19926;-82
2022/09/18 00:10:08;;;;;;;;;;;;;;;5.28;100.00;99819.13;4983639;28;19961;-87
2022/09/18 00:12:34;;;;;;;;;;;;;;;5.36;100.00;99820.72;4984441;28;20004;-89
2022/09/18 00:14:59;;;;;;;;;;;;;;;5.26;100.00;99815.66;4983302;28;19972;-90
2022/09/18 00:17:24;;;;;;;;;;;;;;;5.20;100.00;99815.78;4983088;28;19921;-91
2022/09/18 00:19:49;;;;;;;;;;;;;;;5.19;100.00;99808.81;4983193;28;19917;-89
2022/09/18 00:22:15;;;;;;;;;;;;;;;5.09;100.00;99813.38;4986097;23;19933;-88
2022/09/18 00:24:43;;;;;;;;;;;;;;;5.05;100.00;99821.34;4982371;28;19933;-89
2022/09/18 00:27:16;;;;;;;;;;;;;;;5.06;100.00;99817.84;4984560;28;19964;-93
2022/09/18 00:29:43;;;;;;;;;;;;;;;5.26;100.00;99809.53;4983228;28;20408;-87
2022/09/18 00:32:08;;;;;;;;;;;;;;;5.30;100.00;99815.56;4982637;28;20016;-88
2022/09/18 00:34:34;;;;;;;;;;;;;;;5.34;100.00;99810.22;4983225;28;20017;-89
2022/09/18 00:36:59;;;;;;;;;;;;;;;5.24;100.00;99812.19;4983639;28;20451;-88
2022/09/18 00:39:24;;;;;;;;;;;;;;;5.25;100.00;99810.44;4982042;28;20364;-88
2022/09/18 00:41:50;;;;;;;;;;;;;;;5.45;100.00;99810.00;4982679;28;20374;-84
2022/09/18 00:44:33;;;;;;;;;;;;;;;5.35;100.00;99804.09;4990352;28;20296;-92
2022/09/18 00:47:10;;;;;;;;;;;;;;;5.31;100.00;99812.91;4983394;28;20024;-91
2022/09/18 00:49:37;;;;;;;;;;;;;;;5.43;100.00;99807.41;4982847;28;19922;-93
2022/09/18 00:52:02;;;;;;;;;;;;;;;5.31;100.00;99809.44;4984653;28;19941;-94
2022/09/18 00:54:33;;;;;;;;;;;;;;;5.43;100.00;99810.03;4981802;28;20061;-92
2022/09/18 00:57:04;;;;;;;;;;;;;;;5.48;100.00;99817.84;4982485;28;19917;-86
2022/09/18 00:59:31;;;;;;;;;;;;;;;5.26;100.00;99818.31;4982690;28;20021;-87
2022/09/18 01:01:58;;;;;;;;;;;;;;;5.16;100.00;99808.84;4997161;28;20328;-85
2022/09/18 01:04:24;;;;;;;;;;;;;;;5.15;100.00;99809.75;4983237;28;19918;-87
2022/09/18 01:06:57;;;;;;;;;;;;;;;5.15;100.00;99816.78;4997209;28;19922;-88
2022/09/18 01:09:23;;;;;;;;;;;;;;;5.12;100.00;99806.31;4981159;28;19948;-87
2022/09/18 01:12:09;;;;;;;;;;;;;;;5.15;100.00;99815.00;4984459;28;19929;-89
2022/09/18 01:14:38;;;;;;;;;;;;;;;5.16;100.00;99824.63;4982876;28;20378;-90
2022/09/18 07:33:54;;;;;;;;;;;;;;;4.97;100.00;99844.28;5400395;23;19930;-83
2022/09/18 07:36:19;;;;;;;;;;;;;;;4.87;100.00;99833.06;4973655;28;19926;-82
2022/09/18 07:38:48;;;;;;;;;;;;;;;4.93;100.00;99837.34;4974636;28;20377;-84
2022/09/18 07:41:13;;;;;;;;;;;;;;;4.99;100.00;99824.94;4974729;28;19922;-87
2022/09/18 07:43:38;;;;;;;;;;;;;;;4.94;100.00;99839.94;4973295;28;19985;-83
2022/09/18 07:46:04;;;;;;;;;;;;;;;4.93;100.00;99838.22;4973172;28;19973;-85
2022/09/18 07:48:29;;;;;;;;;;;;;;;4.94;100.00;99836.44;4972464;28;20047;-83
2022/09/18 07:50:56;;;;;;;;;;;;;;;4.96;100.00;99835.50;4974365;28;19925;-83
2022/09/18 07:53:23;;;;;;;;;;;;;;;5.06;100.00;99841.47;4974507;28;20846;-82
2022/09/18 07:55:48;;;;;;;;;;;;;;;5.05;100.00;99842.34;4974151;28;19962;-83
2022/09/18 07:58:13;;;;;;;;;;;;;;;5.04;100.00;99840.63;4974545;28;19918;-84
2022/09/18 08:00:38;;;;;;;;;;;;;;;5.05;100.00;99845.84;4972861;28;19918;-84
2022/09/18 08:03:05;;;;;;;;;;;;;;;5.05;100.00;99847.59;4972972;28;20404;-84
2022/09/18 08:05:30;;;;;;;;;;;;;;;5.03;100.00;99846.78;4973454;28;19919;-85
2022/09/18 12:45:15;;;;;;;;;;;;;;;7.15;100.00;99696.03;4951560;28;20288;-85
2022/09/18 12:47:54;;;;;;;;;;;;;;;7.38;100.00;99681.28;4963495;28;19929;-85
2022/09/18 12:50:31;;;;;;;;;;;;;;;7.37;100.00;99690.97;4971550;28;20392;-85
2022/09/18 12:53:35;;;;;;;;;;;;;;;7.47;100.00;99688.91;4970397;28;20281;-90
2022/09/18 12:56:25;;;;;;;;;;;;;;;7.48;100.00;99689.75;4961428;28;20024;-90
2022/09/18 12:59:09;;;;;;;;;;;;;;;7.27;100.00;99673.69;4969777;28;19922;-85
2022/09/18 13:01:37;;;;;;;;;;;;;;;7.24;100.00;99676.44;4959961;28;20361;-88
2022/09/18 13:04:31;;;;;;;;;;;;;;;7.37;100.00;99663.72;4962436;28;19981;-84
2022/09/18 13:07:17;;;;;;;;;;;;;;;7.45;100.00;99678.41;4961182;28;19917;-90
2022/09/18 13:09:58;;;;;;;;;;;;;;;7.25;100.00;99665.84;4962033;28;19922;-89
2022/09/18 13:12:30;;;;;;;;;;;;;;;7.40;100.00;99664.50;4961942;28;19922;-89
2022/09/18 13:15:16;;;;;;;;;;;;;;;7.21;100.00;99660.72;4963640;28;19923;-90
2022/09/18 13:17:45;;;;;;;;;;;;;;;7.30;100.00;99651.66;4961077;28;20266;-89
2022/09/18 13:20:19;;;;;;;;;;;;;;;7.42;100.00;99657.41;4960254;28;20297;-91
2022/09/18 13:22:46;;;;;;;;;;;;;;;7.46;100.00;99659.03;4963156;28;19974;-88
2022/09/18 13:25:32;;;;;;;;;;;;;;;7.85;100.00;99654.25;4964187;28;19918;-85
2022/09/18 13:27:58;;;;;;;;;;;;;;;7.71;100.00;99646.84;4976646;28;19922;-91
2022/09/18 13:30:28;;;;;;;;;;;;;;;7.90;100.00;99647.94;4966201;28;19919;-88
2022/09/18 13:32:55;;;;;;;;;;;;;;;7.64;100.00;99636.47;4974453;28;19926;-91
2022/09/18 13:35:25;;;;;;;;;;;;;;;7.44;100.00;99629.22;4962517;28;20337;-87
2022/09/18 13:38:05;;;;;;;;;;;;;;;7.76;100.00;99626.44;4965400;28;20374;-87
2022/09/18 13:40:34;;;;;;;;;;;;;;;7.88;100.00;99628.66;4973926;28;19930;-85
2022/09/18 13:43:12;;;;;;;;;;;;;;;7.82;100.00;99619.16;4961693;28;20021;-86
2022/09/18 13:45:38;;;;;;;;;;;;;;;7.65;100.00;99624.16;4961677;28;19930;-88
2022/09/18 13:48:18;;;;;;;;;;;;;;;7.67;100.00;99622.31;4977079;28;19971;-87
2022/09/18 13:50:49;;;;;;;;;;;;;;;7.69;100.00;99617.88;4964192;28;19961;-85
2022/09/18 13:53:33;;;;;;;;;;;;;;;7.47;100.00;99612.44;4962353;28;19934;-90
2022/09/18 13:55:59;;;;;;;;;;;;;;;7.87;100.00;99618.16;4962376;28;19937;-83
2022/09/18 13:58:30;;;;;;;;;;;;;;;7.79;100.00;99610.50;4962724;28;19922;-87
2022/09/18 14:00:57;;;;;;;;;;;;;;;7.79;100.00;99607.88;4959751;28;20057;-84
2022/09/18 14:03:22;;;;;;;;;;;;;;;7.91;100.00;99607.41;4958503;28;19933;-88
2022/09/18 14:05:48;;;;;;;;;;;;;;;7.97;100.00;99590.53;4967642;28;19926;-84
2022/09/18 14:08:13;;;;;;;;;;;;;;;7.93;100.00;99594.19;4963697;28;19918;-89
2022/09/18 14:10:43;;;;;;;;;;;;;;;7.82;100.00;99608.63;4966960;28;19926;-90
2022/09/18 14:13:18;;;;;;;;;;;;;;;7.78;100.00;99604.34;4979231;28;19918;-83
2022/09/18 14:16:04;;;;;;;;;;;;;;;8.06;100.00;99595.50;4973408;28;20270;-87
2022/09/18 14:18:36;;;;;;;;;;;;;;;8.20;100.00;99597.63;4965745;28;19926;-88
2022/09/18 14:21:19;;;;;;;;;;;;;;;8.07;100.00;99586.63;4973354;28;19961;-85
2022/09/18 14:23:45;;;;;;;;;;;;;;;8.12;100.00;99582.06;4968530;28;19918;-86
2022/09/18 14:26:29;;;;;;;;;;;;;;;8.21;100.00;99574.75;4973832;28;19922;-87
2022/09/18 14:28:58;;;;;;;;;;;;;;;7.93;100.00;99570.44;4979255;28;20432;-90
2022/09/18 14:31:27;;;;;;;;;;;;;;;8.02;100.00;99563.97;4965936;28;19919;-87
2022/09/18 14:34:00;;;;;;;;;;;;;;;7.87;100.00;99565.41;4966190;28;19923;-87
2022/09/18 14:36:48;;;;;;;;;;;;;;;7.94;100.00;99565.09;4966166;28;20010;-83
2022/09/18 14:39:26;;;;;;;;;;;;;;;8.28;100.00;99568.31;4965755;28;20289;-83
2022/09/18 14:41:52;;;;;;;;;;;;;;;8.37;100.00;99567.97;4963866;28;19918;-87
2022/09/18 14:44:18;;;;;;;;;;;;;;;8.02;100.00;99561.34;4965798;28;19930;-83
2022/09/18 14:46:51;;;;;;;;;;;;;;;7.94;100.00;99553.69;4964591;28;20413;-84
2022/09/18 14:49:43;;;;;;;;;;;;;;;8.26;100.00;99547.25;4965973;28;19914;-84
2022/09/18 14:52:28;;;;;;;;;;;;;;;8.38;100.00;99559.13;4963853;28;20262;-84
2022/09/18 14:54:54;;;;;;;;;;;;;;;8.42;100.00;99552.81;4965794;28;19930;-83
2022/09/18 14:57:22;;;;;;;;;;;;;;;8.17;100.00;99556.38;4963923;28;19918;-84
2022/09/18 14:59:51;;;;;;;;;;;;;;;8.13;100.00;99559.19;4963452;28;19918;-86
2022/09/18 15:02:35;;;;;;;;;;;;;;;8.34;100.00;99553.13;4964916;28;20391;-83
2022/09/18 15:05:02;;;;;;;;;;;;;;;8.35;100.00;99549.53;4972382;28;19925;-88
2022/09/18 15:07:28;;;;;;;;;;;;;;;8.38;100.00;99543.31;4965695;28;19918;-84
2022/09/18 15:09:55;;;;;;;;;;;;;;;8.51;100.00;99539.28;4966007;28;19922;-84
2022/09/18 15:12:22;;;;;;;;;;;;;;;8.40;100.00;99549.38;4964562;28;19996;-87
2022/09/18 15:14:48;;;;;;;;;;;;;;;8.49;100.00;99549.06;4964350;28;19929;-83
2022/09/18 15:17:20;;;;;;;;;;;;;;;8.32;100.00;99549.66;4965339;28;19919;-83
2022/09/18 15:20:12;;;;;;;;;;;;;;;8.50;100.00;99540.22;4965131;28;19986;-88
2022/09/18 15:22:38;;;;;;;;;;;;;;;8.50;100.00;99549.91;4979621;28;19922;-89
2022/09/18 15:25:04;;;;;;;;;;;;;;;8.40;100.00;99556.44;4963904;28;19952;-84
2022/09/18 15:27:31;;;;;;;;;;;;;;;8.65;100.00;99556.41;4963137;28;19922;-85
2022/09/18 15:29:56;;;;;;;;;;;;;;;8.66;100.00;99545.78;4965573;28;20056;-84
2022/09/18 15:32:24;;;;;;;;;;;;;;;8.52;100.00;99551.59;4965199;28;20413;-87
2022/09/18 15:34:51;;;;;;;;;;;;;;;8.61;100.00;99557.44;4965706;28;19918;-82
2022/09/18 15:37:17;;;;;;;;;;;;;;;8.61;100.00;99557.44;4965036;28;20005;-91
2022/09/18 15:39:45;;;;;;;;;;;;;;;8.61;100.00;99557.44;4965407;28;19922;-90
2022/09/18 15:42:29;;;;;;;;;;;;;;;8.80;100.00;99555.78;4963517;28;19922;-87
2022/09/18 15:44:58;;;;;;;;;;;;;;;8.68;100.00;99556.25;4971421;28;19939;-91
2022/09/18 15:47:33;;;;;;;;;;;;;;;8.63;100.00;99558.22;4971950;28;19993;-90
2022/09/18 15:50:19;;;;;;;;;;;;;;;8.78;100.00;99557.63;4963275;28;19974;-88
2022/09/18 15:52:50;;;;;;;;;;;;;;;8.90;100.00;99554.53;4962764;28;19966;-90
2022/09/18 15:55:16;;;;;;;;;;;;;;;8.98;100.00;99548.91;4964656;28;19918;-87
2022/09/18 15:57:48;;;;;;;;;;;;;;;9.05;100.00;99545.09;4962464;28;19925;-88
2022/09/18 16:00:17;;;;;;;;;;;;;;;8.72;100.00;99550.81;4964887;28;19918;-86
2022/09/18 16:02:49;;;;;;;;;;;;;;;8.83;100.00;99557.47;4964385;28;19925;-87
2022/09/18 16:05:16;;;;;;;;;;;;;;;8.78;100.00;99556.78;4963624;28;19918;-87
2022/09/18 16:07:51;;;;;;;;;;;;;;;8.58;100.00;99561.03;4963473;28;20296;-87
2022/09/18 16:10:36;;;;;;;;;;;;;;;8.62;100.00;99559.16;4978497;28;20445;-87
2022/09/18 16:13:03;;;;;;;;;;;;;;;8.66;100.00;99555.47;4962457;28;19922;-87
2022/09/18 16:15:33;;;;;;;;;;;;;;;8.80;100.00;99557.59;4964004;28;19942;-92
2022/09/18 16:18:19;;;;;;;;;;;;;;;8.71;100.00;99551.75;4963409;28;19925;-87
2022/09/18 16:20:51;;;;;;;;;;;;;;;8.88;100.00;99559.00;4962266;28;19930;-88
2022/09/18 16:23:24;;;;;;;;;;;;;;;8.86;100.00;99555.56;4964476;28;20413;-87
2022/09/18 16:26:07;;;;;;;;;;;;;;;8.70;100.00;99557.94;4963729;28;19922;-88
2022/09/18 16:28:34;;;;;;;;;;;;;;;8.93;100.00;99550.88;4962927;28;20555;-82
2022/09/18 16:31:00;;;;;;;;;;;;;;;8.80;100.00;99557.59;4978308;28;19994;-89
2022/09/18 16:33:26;;;;;;;;;;;;;;;8.85;100.00;99553.81;4962786;28;19922;-88
2022/09/18 16:35:55;;;;;;;;;;;;;;;8.75;100.00;99547.19;4964347;28;19929;-87
2022/09/18 16:38:21;;;;;;;;;;;;;;;8.79;100.00;99553.22;4978697;28;19929;-89
2022/09/18 16:40:46;;;;;;;;;;;;;;;8.98;100.00;99535.69;4970625;28;19918;-89
2022/09/18 16:43:12;;;;;;;;;;;;;;;9.05;100.00;99534.53;4961672;28;19918;-85
2022/09/18 16:45:37;;;;;;;;;;;;;;;9.05;100.00;99528.41;4970818;28;19922;-88
2022/09/18 16:48:03;;;;;;;;;;;;;;;9.12;100.00;99532.50;4962802;28;20296;-88
2022/09/18 16:50:32;;;;;;;;;;;;;;;9.07;100.00;99532.69;4962363;28;19919;-91
2022/09/18 16:52:58;;;;;;;;;;;;;;;8.86;100.00;99544.97;4978558;28;19922;-83
2022/09/18 16:55:23;;;;;;;;;;;;;;;8.98;100.00;99540.97;4963916;28;19925;-83
2022/09/18 16:57:50;;;;;;;;;;;;;;;8.99;100.00;99531.28;4976274;28;20333;-86
2022/09/18 17:00:16;;;;;;;;;;;;;;;9.06;100.00;99535.38;4962370;28;19922;-83
2022/09/18 17:02:46;;;;;;;;;;;;;;;9.11;100.00;99544.03;4963501;28;19918;-86
2022/09/18 17:05:11;;;;;;;;;;;;;;;9.02;100.00;99549.66;4961561;28;19970;-83
2022/09/18 17:07:37;;;;;;;;;;;;;;;9.08;100.00;99546.78;4978359;28;19918;-86
2022/09/18 17:10:02;;;;;;;;;;;;;;;9.12;100.00;99542.22;4964073;28;19972;-84
2022/09/18 17:12:28;;;;;;;;;;;;;;;8.94;100.00;99549.13;4961104;28;20266;-83
2022/09/18 17:14:53;;;;;;;;;;;;;;;8.97;100.00;99536.63;4963158;28;19950;-83
2022/09/18 17:17:19;;;;;;;;;;;;;;;8.95;100.00;99545.53;4963647;28;20348;-84
2022/09/18 17:19:44;;;;;;;;;;;;;;;9.10;100.00;99547.56;4963663;28;19964;-84
2022/09/18 17:22:09;;;;;;;;;;;;;;;9.03;100.00;99540.78;4962072;28;19918;-86
2022/09/18 17:24:35;;;;;;;;;;;;;;;9.20;100.00;99538.31;4962871;28;19981;-83
2022/09/18 17:27:00;;;;;;;;;;;;;;;9.26;100.00;99543.38;4960942;28;19926;-83
2022/09/18 17:29:25;;;;;;;;;;;;;;;9.12;100.00;99544.88;4962153;28;20286;-86
2022/09/18 17:31:54;;;;;;;;;;;;;;;9.04;100.00;99547.81;4963487;28;19929;-87
2022/09/18 17:34:20;;;;;;;;;;;;;;;9.06;100.00;99535.38;4961950;28;19926;-85
2022/09/18 17:36:46;;;;;;;;;;;;;;;9.01;100.00;99542.66;4961895;28;19929;-84
2022/09/18 17:39:12;;;;;;;;;;;;;;;9.02;100.00;99539.94;4963475;28;20505;-85
2022/09/18 17:41:37;;;;;;;;;;;;;;;9.08;100.00;99550.28;4962152;28;19925;-85
2022/09/18 17:44:03;;;;;;;;;;;;;;;9.02;100.00;99554.97;4961071;28;19930;-86
2022/09/18 17:46:29;;;;;;;;;;;;;;;9.02;100.00;99552.31;4962916;28;20302;-85
2022/09/18 17:48:55;;;;;;;;;;;;;;;9.07;100.00;99550.34;4963590;28;19922;-83
2022/09/18 17:51:22;;;;;;;;;;;;;;;9.15;100.00;99552.66;4969951;28;19926;-84
2022/09/18 17:53:47;;;;;;;;;;;;;;;9.29;100.00;99546.84;4963299;28;19945;-83
2022/09/18 17:56:22;;;;;;;;;;;;;;;9.20;100.00;99559.47;4960218;28;19926;-83
2022/09/18 17:59:04;;;;;;;;;;;;;;;9.37;100.00;99568.53;4975005;28;19930;-83
2022/09/18 18:01:30;;;;;;;;;;;;;;;9.26;100.00;99582.19;4963031;28;20752;-84
2022/09/18 18:03:56;;;;;;;;;;;;;;;9.29;100.00;99574.13;4959046;28;19922;-87
2022/09/18 18:06:21;;;;;;;;;;;;;;;9.35;100.00;99560.66;4959940;28;19923;-86
2022/09/18 18:08:50;;;;;;;;;;;;;;;9.30;100.00;99553.81;4956347;28;19949;-83
2022/09/18 18:11:20;;;;;;;;;;;;;;;9.21;100.00;99550.63;4960856;28;19930;-83
2022/09/18 18:13:48;;;;;;;;;;;;;;;9.32;100.00;99560.78;4959873;28;19922;-86
2022/09/18 18:16:22;;;;;;;;;;;;;;;9.29;100.00;99565.34;4961406;28;19977;-85
2022/09/18 18:18:50;;;;;;;;;;;;;;;9.15;100.00;99566.75;4977825;28;19930;-85
2022/09/18 18:21:15;;;;;;;;;;;;;;;9.27;100.00;99568.03;4966013;28;20017;-83
2022/09/18 18:23:41;;;;;;;;;;;;;;;9.35;100.00;99579.16;4961358;28;20336;-86
2022/09/18 18:26:07;;;;;;;;;;;;;;;9.38;100.00;99578.16;4962935;28;19926;-84
2022/09/18 18:28:33;;;;;;;;;;;;;;;9.34;100.00;99576.59;4964539;28;19965;-85
2022/09/18 18:31:04;;;;;;;;;;;;;;;9.41;100.00;99575.38;4962743;28;20377;-83
2022/09/18 18:33:30;;;;;;;;;;;;;;;9.33;100.00;99578.34;4964230;28;19930;-83
2022/09/18 18:36:05;;;;;;;;;;;;;;;9.38;100.00;99583.44;4960407;28;19929;-85
2022/09/18 18:38:30;;;;;;;;;;;;;;;9.36;100.00;99586.16;4971116;28;19957;-87
2022/09/18 18:40:59;;;;;;;;;;;;;;;9.23;100.00;99592.88;4964497;28;19973;-84
2022/09/18 18:43:24;;;;;;;;;;;;;;;9.36;100.00;99587.94;4961668;28;20322;-84
2022/09/18 18:45:57;;;;;;;;;;;;;;;9.26;100.00;99595.41;4961222;28;19972;-84
2022/09/18 18:48:23;;;;;;;;;;;;;;;9.51;100.00;99589.97;4962139;28;20017;-84
2022/09/18 18:50:56;;;;;;;;;;;;;;;9.45;100.00;99593.72;4964926;28;19998;-84
2022/09/18 18:53:22;;;;;;;;;;;;;;;9.47;100.00;99592.81;4970274;28;19965;-83
2022/09/18 18:55:58;;;;;;;;;;;;;;;9.50;100.00;99596.16;4963500;28;19976;-88
2022/09/18 18:58:25;;;;;;;;;;;;;;;9.30;100.00;99602.25;4960288;28;20420;-85
2022/09/18 19:00:51;;;;;;;;;;;;;;;9.44;100.00;99601.72;4980866;28;19929;-88
2022/09/18 19:03:16;;;;;;;;;;;;;;;9.47;100.00;99604.22;4962045;28;19926;-85
2022/09/18 19:05:41;;;;;;;;;;;;;;;9.37;100.00;99602.91;4964877;28;19957;-87
2022/09/18 19:08:08;;;;;;;;;;;;;;;9.34;100.00;99600.38;4969541;28;19933;-85
2022/09/18 19:10:33;;;;;;;;;;;;;;;9.53;100.00;99598.69;4965156;28;19924;-83
2022/09/18 19:12:59;;;;;;;;;;;;;;;9.51;100.00;99610.25;4957880;28;20060;-85
2022/09/18 19:15:28;;;;;;;;;;;;;;;9.52;100.00;99610.19;4964701;28;19930;-84
2022/09/18 19:17:56;;;;;;;;;;;;;;;9.52;100.00;99611.97;4963458;28;19931;-84
2022/09/18 19:20:22;;;;;;;;;;;;;;;9.47;100.00;99609.53;4965155;28;19928;-84
2022/09/18 19:22:55;;;;;;;;;;;;;;;9.55;100.00;99611.84;4965219;28;19918;-88
2022/09/18 19:25:25;;;;;;;;;;;;;;;9.46;100.00;99607.78;4960743;28;19922;-88
2022/09/18 19:27:56;;;;;;;;;;;;;;;9.46;100.00;99599.84;4980413;28;20390;-85
2022/09/18 19:30:22;;;;;;;;;;;;;;;9.47;100.00;99606.88;4970800;28;20357;-85
2022/09/18 19:32:51;;;;;;;;;;;;;;;9.51;100.00;99616.41;4964024;28;19930;-85
2022/09/18 19:35:17;;;;;;;;;;;;;;;9.51;100.00;99605.84;4963064;28;19927;-85
2022/09/18 19:37:48;;;;;;;;;;;;;;;9.41;100.00;99607.13;4960831;28;20373;-84
2022/09/18 19:40:15;;;;;;;;;;;;;;;9.48;100.00;99602.44;4955989;28;19929;-83
2022/09/18 19:42:41;;;;;;;;;;;;;;;9.51;100.00;99605.84;4963773;28;19919;-84
2022/09/18 19:45:09;;;;;;;;;;;;;;;9.48;100.00;99605.06;4961799;28;20338;-84
2022/09/18 19:47:40;;;;;;;;;;;;;;;9.44;100.00;99593.78;4972026;28;19922;-86
2022/09/18 19:50:06;;;;;;;;;;;;;;;9.40;100.00;99600.97;4963010;28;20045;-85
2022/09/18 19:52:31;;;;;;;;;;;;;;;9.36;100.00;99603.81;4976250;28;19968;-86
2022/09/18 19:55:00;;;;;;;;;;;;;;;9.51;100.00;99603.19;4960551;28;20357;-89
2022/09/18 19:57:26;;;;;;;;;;;;;;;9.48;100.00;99603.31;4959704;28;20296;-84
2022/09/18 19:59:56;;;;;;;;;;;;;;;9.51;100.00;99604.94;4962348;28;20005;-83
2022/09/18 20:02:37;;;;;;;;;;;;;;;9.46;100.00;99599.84;4962960;28;20013;-87
2022/09/18 20:07:50;;;;;;;;;;;;;;;9.50;100.00;99601.47;4989869;28;19969;-83
2022/09/18 20:10:16;;;;;;;;;;;;;;;9.49;100.00;99602.38;4969008;28;19922;-85
2022/09/18 20:12:41;;;;;;;;;;;;;;;9.51;100.00;99605.84;4963850;28;20316;-82
2022/09/18 20:15:08;;;;;;;;;;;;;;;9.54;100.00;99610.13;4964994;28;19922;-84
2022/09/18 20:17:33;;;;;;;;;;;;;;;9.57;100.00;99613.53;4960070;28;19930;-84
2022/09/18 20:19:59;;;;;;;;;;;;;;;9.51;100.00;99611.13;4961882;28;19930;-82
2022/09/18 20:22:27;;;;;;;;;;;;;;;9.47;100.00;99616.59;4961038;28;20013;-83
2022/09/18 20:24:53;;;;;;;;;;;;;;;9.63;100.00;99615.88;4959070;28;20263;-83
2022/09/18 20:27:18;;;;;;;;;;;;;;;9.53;100.00;99613.72;4959624;28;21117;-83
2022/09/18 20:29:44;;;;;;;;;;;;;;;9.48;100.00;99608.59;4962425;28;20406;-83
2022/09/18 20:32:09;;;;;;;;;;;;;;;9.47;100.00;99609.53;4960326;28;20440;-84
2022/09/18 20:34:35;;;;;;;;;;;;;;;9.42;100.00;99615.00;4963297;28;20271;-83
2022/09/18 20:37:02;;;;;;;;;;;;;;;9.46;100.00;99615.72;4962045;28;20409;-83
2022/09/18 20:39:27;;;;;;;;;;;;;;;9.51;100.00;99611.13;4960972;28;19922;-84
2022/09/18 20:41:54;;;;;;;;;;;;;;;9.55;100.00;99620.63;4957650;28;19930;-83
2022/09/18 20:44:20;;;;;;;;;;;;;;;9.51;100.00;99620.81;4961827;28;19926;-82
2022/09/18 20:46:46;;;;;;;;;;;;;;;9.47;100.00;99622.75;4977126;28;20440;-83
2022/09/18 20:49:16;;;;;;;;;;;;;;;9.52;100.00;99623.41;4975750;28;19926;-83
2022/09/18 20:51:41;;;;;;;;;;;;;;;9.44;100.00;99625.50;4962468;28;20078;-83
2022/09/18 20:54:06;;;;;;;;;;;;;;;9.50;100.00;99622.63;4961648;28;20017;-84
2022/09/18 20:56:34;;;;;;;;;;;;;;;9.48;100.00;99636.81;4960187;28;19970;-84
2022/09/18 20:59:03;;;;;;;;;;;;;;;9.47;100.00;99645.69;4960425;28;19953;-86
2022/09/18 21:01:37;;;;;;;;;;;;;;;9.48;100.00;99643.00;4962836;28;20456;-85
2022/09/18 21:04:03;;;;;;;;;;;;;;;9.59;100.00;99634.63;4958528;28;19922;-84
2022/09/18 21:06:32;;;;;;;;;;;;;;;9.51;100.00;99634.94;4962753;28;19925;-84
2022/09/18 21:08:59;;;;;;;;;;;;;;;9.61;100.00;99644.19;4964317;28;20275;-84
2022/09/18 21:11:26;;;;;;;;;;;;;;;9.61;100.00;99649.50;4962751;28;19922;-84
2022/09/18 21:13:52;;;;;;;;;;;;;;;9.58;100.00;99654.06;4960923;28;20040;-84
2022/09/18 21:16:19;;;;;;;;;;;;;;;9.56;100.00;99672.63;4961728;28;19919;-84
2022/09/18 21:18:46;;;;;;;;;;;;;;;9.64;100.00;99674.97;4960481;28;19993;-86
2022/09/18 21:21:14;;;;;;;;;;;;;;;9.58;100.00;99678.72;4962394;28;20281;-87
2022/09/18 21:23:52;;;;;;;;;;;;;;;9.59;100.00;99680.44;4965626;28;19982;-85
2022/09/18 21:26:24;;;;;;;;;;;;;;;9.59;100.00;99671.66;4961965;28;20417;-84
2022/09/18 21:28:52;;;;;;;;;;;;;;;9.61;100.00;99678.59;4961320;28;19965;-84
2022/09/18 21:31:18;;;;;;;;;;;;;;;9.67;100.00;99687.19;4963401;28;20334;-84
2022/09/18 21:33:43;;;;;;;;;;;;;;;9.56;100.00;99704.38;4961872;28;19918;-85
2022/09/18 21:36:08;;;;;;;;;;;;;;;9.54;100.00;99708.88;4960028;28;20337;-84
